LEMD/MAD METAR and TAF weather

Enter ICAO airport designator
Station Type Date Time Source
LEMD METAR 2020/07/04 01:30 UTC NOAA

LEMD 040130Z 08003KT 030V140 CAVOK 20/03 Q1022 NOSIG


Station Type Date Time Source
LEMD Decoded METAR 2020/07/04 01:30 UTC NOAA

Madrid / Barajas, Spain (LEMD) 40-27N 003-33W 582M
Jul 03, 2020 - 09:30 PM EDT / 2020.07.04 0130 UTC
Wind: from the E (080 degrees) at 3 MPH (3 KT) (direction variable):0
Visibility: greater than 7 mile(s):0
Temperature: 68 F (20 C)
Dew Point: 37 F (3 C)
Relative Humidity: 32%
Pressure (altimeter): 30.18 in. Hg (1022 hPa)
ob: LEMD 040130Z 08003KT 030V140 CAVOK 20/03 Q1022 NOSIG
cycle: 1

Station Type Date Time Source
LEMD TAF 2020/07/03 18:27 UTC NOAA

TAF LEMD 031700Z 0318/0424 VRB04KT CAVOK TX36/0415Z TN17/0406Z
BECMG 0318/0320 03010KT PROB30
TEMPO 0400/0405 03010G20KT
BECMG 0407/0409 VRB04KT
BECMG 0418/0420 03010KT

Example: see airport list